Anderson, OH

12:44 PM EDT am 30. Juni 2015 (GMT -0400)
APRSWXNET | | Change Station
CLOSE
Current Station
Personal Weather Stations
Location: Anderson, OH
Elevation: 862 ft
Nearby Weather Stations

Elev 862 ft 39.09 °N, 84.33 °W | Updated 26 minutes ago

teilwis wulchig
teilwis wulchig
78 °F
Feels Like 80 °F
N
1
Wind veränderlich Wind from WSW
Gusts 11.0 mph

Hüt
High -- | Low -- °F
--% Chance of Precip.
Geschter
High -- | Low -- °F
Precip. -- inch
6:14 AM 9:07 PM
Waxing Gibbous, 98% visible
Druck 29.86 inch
Sichtwiiti 10.0 Meile
bewölkt Few 2500 ft
teilwis wulchig 3200 ft
gröschteteils wulchig 7000 ft
Hitzeindex 80 °F
Taupunkt 69 °F
Füechtigkeit 73%
Rainfall inch
Snow Depth Not available.
UV 5 out of 12
Pollen 2.40 out of 12
Air Quality Not available.
Flu Activity Sporadic
METAR KLUK 301553Z 21008KT 10SM FEW025 SCT032 BKN070 24/19 A2986 RMK AO2 LTG DSNT N AND NW SLP109 T02440194

More Conditions Fewer Conditions

Druck 29.86 inch
Sichtwiiti 10.0 Meile
bewölkt Few 2500 ft
teilwis wulchig 3200 ft
gröschteteils wulchig 7000 ft
Hitzeindex 80 °F
Taupunkt 69 °F
Füechtigkeit 73%
Rainfall inch
Snow Depth Not available.
UV 5 out of 12
Pollen 2.40 out of 12
Air Quality Not available.
Flu Activity Sporadic
METAR KLUK 301553Z 21008KT 10SM FEW025 SCT032 BKN070 24/19 A2986 RMK AO2 LTG DSNT N AND NW SLP109 T02440194

More Conditions Fewer Conditions

10-Day Weather Forecast

×

Almanac

Astronomie

Jun. 30, 2015 Rise Set
Momentani Ziit
Civil Twilight
Nautical Twilight
Astronomical Twilight
Mond
Length Of Visible Light
Längi vum Tag
Tomorrow will be .
, % of the Moon is Illuminated

Today's Extremes

State Highs State Lows

Community

WunderPhotos

Upload Photos

1,834,038 photos uploaded!

WunderBlogs® & News

Nearby

Air Quality

  Air Quality AQ Index Pollutant
Not available.

Schneetüfi

Station Depth Elevation

Earthquake Activity

Stadt Distance Mag. Time & Date
Minimum magnitude displayed is 2.5.

Coastal Water Temperatures

Ort Temperatur

Stations

Nearby Weather Stations

Station Location Temp Wind uschüelig Taupunkt Füechtigkeit Wind Precip. Elev Aktualisierig Type